Time;durP1;ratioP1;P1;durP2;ratioP2;P2;SDS_P1;SDS_P2;PMS_P1;PMS_P2;Temp;Humidity;BMP_temperature;BMP_pressure;BME280_temperature;BME280_humidity;BME280_pressure;Samples;Min_cycle;Max_cycle;Signal;HPM_P1;HPM_P2
2021/01/27 00:03:24;;;;;;;19.52;10.88;;;;;;;;;;10219970;28;20069;-60
2021/01/27 00:08:22;;;;;;;16.95;10.27;;;;;;;;;;10221449;28;20092;-58
2021/01/27 00:13:21;;;;;;;19.00;11.10;;;;;;;;;;10219527;28;20077;-59
2021/01/27 00:18:20;;;;;;;13.75;11.50;;;;;;;;;;10217378;28;20077;-60
2021/01/27 00:23:19;;;;;;;17.65;13.85;;;;;;;;;;10217633;28;20077;-61
2021/01/27 00:28:16;;;;;;;13.77;10.55;;;;;;;;;;10216858;28;20477;-60
2021/01/27 00:33:14;;;;;;;11.93;9.88;;;;;;;;;;10220727;28;20077;-60
2021/01/27 00:38:14;;;;;;;12.88;11.52;;;;;;;;;;10218980;28;20084;-60
2021/01/27 00:43:13;;;;;;;12.52;10.73;;;;;;;;;;10219639;28;20498;-61
2021/01/27 00:48:10;;;;;;;23.27;13.38;;;;;;;;;;10219375;28;20069;-61
2021/01/27 00:53:08;;;;;;;15.38;12.25;;;;;;;;;;10218260;28;20080;-61
2021/01/27 00:58:14;;;;;;;17.73;13.70;;;;;;;;;;10217088;28;20073;-60
2021/01/27 01:03:15;;;;;;;20.45;13.48;;;;;;;;;;10217519;28;20085;-61
2021/01/27 01:08:14;;;;;;;16.17;13.27;;;;;;;;;;10216813;28;20104;-60
2021/01/27 01:13:12;;;;;;;14.25;11.93;;;;;;;;;;10217730;28;20080;-60
2021/01/27 01:18:10;;;;;;;14.40;10.77;;;;;;;;;;10218878;28;20088;-61
2021/01/27 01:23:09;;;;;;;17.13;10.98;;;;;;;;;;10217732;28;20089;-61
2021/01/27 01:28:07;;;;;;;16.40;11.80;;;;;;;;;;10214822;28;20092;-60
2021/01/27 01:33:05;;;;;;;18.75;12.93;;;;;;;;;;10213966;28;20082;-63
2021/01/27 01:38:04;;;;;;;30.70;21.25;;;;;;;;;;10217884;28;20089;-59
2021/01/27 01:43:03;;;;;;;17.20;13.88;;;;;;;;;;10215849;28;20510;-59
2021/01/27 01:48:01;;;;;;;17.58;12.05;;;;;;;;;;10217066;28;20073;-59
2021/01/27 01:52:59;;;;;;;15.15;12.20;;;;;;;;;;10216849;28;20100;-60
2021/01/27 01:57:58;;;;;;;17.65;13.80;;;;;;;;;;10214967;28;20076;-60
2021/01/27 02:02:55;;;;;;;17.33;13.55;;;;;;;;;;10217284;28;20069;-60
2021/01/27 02:07:54;;;;;;;21.63;17.67;;;;;;;;;;10215388;28;20459;-60
2021/01/27 02:13:18;;;;;;;21.52;15.65;;;;;;;;;;10212443;28;20451;-60
2021/01/27 02:18:19;;;;;;;13.30;11.48;;;;;;;;;;10168495;28;20081;-60
2021/01/27 02:23:40;;;;;;;18.38;13.60;;;;;;;;;;10212879;28;20447;-60
2021/01/27 02:28:52;;;;;;;18.98;13.63;;;;;;;;;;10196307;28;20069;-61
2021/01/27 02:34:03;;;;;;;22.83;15.43;;;;;;;;;;10204416;28;20096;-61
2021/01/27 02:39:02;;;;;;;19.60;13.70;;;;;;;;;;10212483;28;20586;-61
2021/01/27 02:44:02;;;;;;;13.43;11.15;;;;;;;;;;10215955;28;20077;-60
2021/01/27 02:49:02;;;;;;;19.58;12.20;;;;;;;;;;10210920;28;20072;-60
2021/01/27 02:54:03;;;;;;;13.55;10.10;;;;;;;;;;10211860;28;20088;-61
2021/01/27 02:59:02;;;;;;;13.23;11.77;;;;;;;;;;10211385;28;20080;-60
2021/01/27 03:04:03;;;;;;;14.65;10.00;;;;;;;;;;10210660;28;20081;-60
2021/01/27 03:09:03;;;;;;;15.85;11.77;;;;;;;;;;10211184;28;20593;-60
2021/01/27 03:14:00;;;;;;;12.50;9.48;;;;;;;;;;10210386;28;20576;-60
2021/01/27 03:19:01;;;;;;;15.75;10.23;;;;;;;;;;10213502;28;20490;-60
2021/01/27 03:24:01;;;;;;;16.38;10.40;;;;;;;;;;10212637;28;20049;-59
2021/01/27 03:29:01;;;;;;;10.88;8.27;;;;;;;;;;10214027;28;20077;-61
2021/01/27 03:34:01;;;;;;;17.48;10.43;;;;;;;;;;10211844;28;20069;-60
2021/01/27 03:38:59;;;;;;;8.90;7.35;;;;;;;;;;10213699;28;20081;-60
2021/01/27 03:44:01;;;;;;;25.65;17.15;;;;;;;;;;10212568;28;20077;-61
2021/01/27 03:49:02;;;;;;;11.80;9.13;;;;;;;;;;10213395;28;20082;-60
2021/01/27 03:54:00;;;;;;;26.35;15.85;;;;;;;;;;10211618;28;20327;-60
2021/01/27 03:58:57;;;;;;;19.85;12.75;;;;;;;;;;10212999;28;20081;-60
2021/01/27 04:03:55;;;;;;;28.05;15.80;;;;;;;;;;10212737;28;20061;-60
2021/01/27 04:08:53;;;;;;;17.38;11.48;;;;;;;;;;10210948;28;20065;-61
2021/01/27 04:13:50;;;;;;;30.10;15.18;;;;;;;;;;10213300;28;20057;-61
2021/01/27 04:18:48;;;;;;;23.10;11.57;;;;;;;;;;10208717;28;20077;-61
2021/01/27 04:23:45;;;;;;;20.20;10.95;;;;;;;;;;10212239;28;20066;-60
2021/01/27 04:28:43;;;;;;;18.77;11.02;;;;;;;;;;10211558;28;20069;-61
2021/01/27 04:33:41;;;;;;;29.02;13.32;;;;;;;;;;10211939;28;20084;-60
2021/01/27 04:38:38;;;;;;;21.75;11.52;;;;;;;;;;10211751;28;20093;-61
2021/01/27 04:43:36;;;;;;;22.85;13.38;;;;;;;;;;10214187;28;20073;-62
2021/01/27 04:48:42;;;;;;;29.80;16.27;;;;;;;;;;10216558;28;20070;-62
2021/01/27 04:53:43;;;;;;;22.45;13.90;;;;;;;;;;10217213;28;20495;-61
2021/01/27 04:58:45;;;;;;;14.50;11.90;;;;;;;;;;10218397;28;20080;-61
2021/01/27 05:03:50;;;;;;;14.82;11.05;;;;;;;;;;10218528;28;20500;-62
2021/01/27 05:08:52;;;;;;;19.30;12.63;;;;;;;;;;10218296;28;20491;-62
2021/01/27 05:13:50;;;;;;;21.05;13.95;;;;;;;;;;10218387;28;20073;-60
2021/01/27 05:18:50;;;;;;;23.50;14.52;;;;;;;;;;10217235;28;20084;-62
2021/01/27 05:23:47;;;;;;;25.90;15.75;;;;;;;;;;10218485;28;20089;-60
2021/01/27 05:28:46;;;;;;;23.50;14.63;;;;;;;;;;10217486;28;20076;-61
2021/01/27 05:33:45;;;;;;;22.50;15.52;;;;;;;;;;10216770;28;20080;-62
2021/01/27 05:38:43;;;;;;;19.10;11.65;;;;;;;;;;10216151;28;20073;-61
2021/01/27 05:43:41;;;;;;;17.13;11.48;;;;;;;;;;10217511;28;20069;-61
2021/01/27 05:48:43;;;;;;;16.17;12.45;;;;;;;;;;10211439;28;20440;-61
2021/01/27 05:53:40;;;;;;;20.70;13.63;;;;;;;;;;10208632;28;20755;-60
2021/01/27 05:58:40;;;;;;;17.95;14.02;;;;;;;;;;10213458;28;20601;-60
2021/01/27 06:03:37;;;;;;;23.90;16.85;;;;;;;;;;10211805;28;20493;-59
2021/01/27 06:08:35;;;;;;;23.75;16.50;;;;;;;;;;10214992;28;20515;-61
2021/01/27 06:13:32;;;;;;;36.35;21.77;;;;;;;;;;10215851;28;20547;-61
2021/01/27 06:18:31;;;;;;;75.43;43.35;;;;;;;;;;10214867;28;20494;-61
2021/01/27 06:23:47;;;;;;;38.72;25.67;;;;;;;;;;10216080;28;20077;-61
2021/01/27 06:28:57;;;;;;;38.05;22.80;;;;;;;;;;10212589;28;20088;-61
2021/01/27 06:34:05;;;;;;;37.70;26.73;;;;;;;;;;10213697;28;20516;-62
2021/01/27 06:39:15;;;;;;;21.80;13.13;;;;;;;;;;10214199;28;20077;-62
2021/01/27 06:44:16;;;;;;;28.23;22.50;;;;;;;;;;10213116;28;20538;-62
2021/01/27 06:49:25;;;;;;;29.48;21.83;;;;;;;;;;10215117;28;20073;-62
2021/01/27 06:54:28;;;;;;;51.78;32.95;;;;;;;;;;10215358;28;20084;-61
2021/01/27 06:59:45;;;;;;;68.82;43.83;;;;;;;;;;10213245;28;20080;-61
2021/01/27 07:05:01;;;;;;;60.25;39.08;;;;;;;;;;10214128;28;20061;-61
2021/01/27 07:10:08;;;;;;;81.70;47.03;;;;;;;;;;10212088;28;20085;-61
2021/01/27 07:15:25;;;;;;;57.13;34.85;;;;;;;;;;10213230;28;20092;-61
2021/01/27 07:20:26;;;;;;;68.65;35.17;;;;;;;;;;10212953;28;20093;-61
2021/01/27 07:25:28;;;;;;;25.73;18.92;;;;;;;;;;10212441;28;20511;-61
2021/01/27 07:30:32;;;;;;;39.53;30.48;;;;;;;;;;10214394;28;20069;-61
2021/01/27 07:35:33;;;;;;;35.67;26.88;;;;;;;;;;10212400;28;20084;-61
2021/01/27 07:52:18;;;;;;;21.90;17.00;;;;;;;;;;10209067;28;20065;-61
2021/01/27 07:57:24;;;;;;;35.13;22.08;;;;;;;;;;10208776;28;20087;-61
2021/01/27 08:02:24;;;;;;;45.22;32.65;;;;;;;;;;10209741;28;20120;-61
2021/01/27 08:07:25;;;;;;;97.60;56.45;;;;;;;;;;10212860;28;20451;-61
2021/01/27 08:12:28;;;;;;;143.25;108.60;;;;;;;;;;10210917;28;20073;-61
2021/01/27 08:17:38;;;;;;;149.55;117.20;;;;;;;;;;10215278;28;20080;-61
2021/01/27 08:22:47;;;;;;;57.35;42.15;;;;;;;;;;10221221;28;20084;-61
2021/01/27 08:27:44;;;;;;;33.80;24.20;;;;;;;;;;10216796;28;20069;-61
2021/01/27 08:32:45;;;;;;;31.38;24.60;;;;;;;;;;10220749;28;20077;-61
2021/01/27 08:38:02;;;;;;;104.07;68.88;;;;;;;;;;10216701;28;20085;-61
2021/01/27 08:43:02;;;;;;;97.78;66.90;;;;;;;;;;10215012;28;20455;-61
2021/01/27 08:48:01;;;;;;;71.63;47.88;;;;;;;;;;10215650;28;20092;-61
2021/01/27 08:53:05;;;;;;;198.25;104.05;;;;;;;;;;10215476;28;20077;-61
2021/01/27 08:58:20;;;;;;;171.63;92.47;;;;;;;;;;10214860;28;20107;-61
2021/01/27 09:03:36;;;;;;;158.65;79.97;;;;;;;;;;10218755;28;20065;-61
2021/01/27 09:08:34;;;;;;;48.95;29.25;;;;;;;;;;10215295;28;20112;-61
2021/01/27 09:13:34;;;;;;;107.70;55.05;;;;;;;;;;10218385;28;20087;-61
2021/01/27 09:18:32;;;;;;;85.57;50.42;;;;;;;;;;10217003;28;20081;-61
2021/01/27 09:23:29;;;;;;;324.80;150.77;;;;;;;;;;10219136;28;20160;-61
2021/01/27 09:28:28;;;;;;;371.23;200.35;;;;;;;;;;10215801;28;20073;-62
2021/01/27 09:33:30;;;;;;;257.60;119.05;;;;;;;;;;10213624;28;20069;-62
2021/01/27 09:38:27;;;;;;;373.70;166.35;;;;;;;;;;10213841;28;20079;-62
2021/01/27 09:43:25;;;;;;;398.40;163.23;;;;;;;;;;10217713;28;20070;-62
2021/01/27 09:48:23;;;;;;;500.98;196.73;;;;;;;;;;10215659;28;20073;-62
2021/01/27 09:53:23;;;;;;;536.30;218.45;;;;;;;;;;10216891;28;20468;-62
2021/01/27 09:58:21;;;;;;;418.20;171.00;;;;;;;;;;10216320;28;20073;-61
2021/01/27 10:03:23;;;;;;;402.05;163.80;;;;;;;;;;10215357;28;20084;-62
2021/01/27 10:08:24;;;;;;;327.13;126.20;;;;;;;;;;10215998;28;20175;-60
2021/01/27 10:13:38;;;;;;;470.17;189.85;;;;;;;;;;10214034;28;20105;-61
2021/01/27 10:18:37;;;;;;;46.05;28.77;;;;;;;;;;10216815;28;20089;-62
2021/01/27 10:23:36;;;;;;;124.72;72.15;;;;;;;;;;10214299;28;20071;-62
2021/01/27 10:28:34;;;;;;;47.38;34.85;;;;;;;;;;10212399;28;20068;-61
2021/01/27 10:33:33;;;;;;;43.42;30.80;;;;;;;;;;10215805;28;20061;-61
2021/01/27 10:38:30;;;;;;;46.22;35.22;;;;;;;;;;10213010;28;20416;-60
2021/01/27 10:43:28;;;;;;;49.95;34.00;;;;;;;;;;10215136;28;20069;-62
2021/01/27 10:48:27;;;;;;;37.55;27.98;;;;;;;;;;10214616;28;20506;-61
2021/01/27 10:53:25;;;;;;;50.65;37.70;;;;;;;;;;10213696;28;20057;-61
2021/01/27 10:58:22;;;;;;;48.40;33.53;;;;;;;;;;10214698;28;20069;-61
2021/01/27 11:03:20;;;;;;;76.32;59.40;;;;;;;;;;10212986;28;20440;-62
2021/01/27 11:08:22;;;;;;;59.33;41.45;;;;;;;;;;10210043;28;20065;-61
2021/01/27 11:13:23;;;;;;;161.63;88.10;;;;;;;;;;10210701;28;20069;-62
2021/01/27 11:18:21;;;;;;;49.67;35.10;;;;;;;;;;10214043;28;20077;-61
2021/01/27 11:23:20;;;;;;;172.27;77.05;;;;;;;;;;10210090;28;20087;-62
2021/01/27 11:28:18;;;;;;;173.85;77.95;;;;;;;;;;10209154;28;20651;-61
2021/01/27 11:33:16;;;;;;;68.70;34.88;;;;;;;;;;10213820;28;20460;-61
2021/01/27 11:38:14;;;;;;;138.25;67.15;;;;;;;;;;10212595;28;20490;-62
2021/01/27 11:43:12;;;;;;;45.45;29.42;;;;;;;;;;10211948;28;20077;-62
2021/01/27 11:48:09;;;;;;;90.57;52.65;;;;;;;;;;10212927;28;20069;-61
2021/01/27 11:53:08;;;;;;;82.05;43.40;;;;;;;;;;10210717;28;20096;-62
2021/01/27 11:58:05;;;;;;;45.95;29.38;;;;;;;;;;10212834;28;20085;-62
2021/01/27 12:03:03;;;;;;;82.93;40.45;;;;;;;;;;10211068;28;20069;-61
2021/01/27 12:08:00;;;;;;;103.55;55.22;;;;;;;;;;10213207;28;20104;-62
2021/01/27 12:12:58;;;;;;;105.68;51.40;;;;;;;;;;10211738;28;20068;-62
2021/01/27 12:17:56;;;;;;;33.20;25.40;;;;;;;;;;10212312;28;20073;-62
2021/01/27 12:22:54;;;;;;;76.15;39.58;;;;;;;;;;10212731;28;20103;-62
2021/01/27 12:27:51;;;;;;;26.80;20.17;;;;;;;;;;10211150;28;20081;-62
2021/01/27 12:32:50;;;;;;;41.38;28.30;;;;;;;;;;10212031;28;20077;-62
2021/01/27 12:37:48;;;;;;;51.25;34.33;;;;;;;;;;10208609;28;20073;-62
2021/01/27 12:42:45;;;;;;;36.35;25.00;;;;;;;;;;10208533;28;20069;-62
2021/01/27 12:47:43;;;;;;;38.85;23.38;;;;;;;;;;10211355;28;20065;-62
2021/01/27 12:52:42;;;;;;;41.28;27.13;;;;;;;;;;10211547;28;20073;-62
2021/01/27 12:57:39;;;;;;;43.22;32.45;;;;;;;;;;10210512;28;20076;-63
2021/01/27 13:02:36;;;;;;;38.92;25.00;;;;;;;;;;10212931;28;20072;-62
2021/01/27 13:07:34;;;;;;;70.55;41.53;;;;;;;;;;10217296;28;20099;-62
2021/01/27 13:12:32;;;;;;;44.28;30.13;;;;;;;;;;10214868;28;20163;-62
2021/01/27 13:17:29;;;;;;;47.97;33.83;;;;;;;;;;10218238;28;20080;-62
2021/01/27 13:22:27;;;;;;;36.63;25.92;;;;;;;;;;10217599;28;20084;-62
2021/01/27 13:27:24;;;;;;;37.75;24.33;;;;;;;;;;10217341;28;20081;-62
2021/01/27 13:32:22;;;;;;;50.88;30.02;;;;;;;;;;10217818;28;20084;-62
2021/01/27 13:37:20;;;;;;;27.35;22.13;;;;;;;;;;10215435;28;20086;-62
2021/01/27 13:42:17;;;;;;;47.22;32.30;;;;;;;;;;10213531;28;20041;-62
2021/01/27 13:47:15;;;;;;;43.80;32.47;;;;;;;;;;10217483;28;20494;-62
2021/01/27 13:52:13;;;;;;;35.03;25.70;;;;;;;;;;10215717;28;20120;-62
2021/01/27 13:57:11;;;;;;;46.05;29.02;;;;;;;;;;10216058;28;20110;-62
2021/01/27 14:02:09;;;;;;;48.15;32.30;;;;;;;;;;10215826;28;20071;-62
2021/01/27 14:07:07;;;;;;;49.95;30.30;;;;;;;;;;10214771;28;20058;-61
2021/01/27 14:12:10;;;;;;;46.13;31.02;;;;;;;;;;10215883;28;20076;-61
2021/01/27 14:17:08;;;;;;;56.67;38.80;;;;;;;;;;10214664;28;20451;-61
2021/01/27 14:22:05;;;;;;;107.00;73.35;;;;;;;;;;10216063;28;20091;-61
2021/01/27 14:27:03;;;;;;;41.40;26.45;;;;;;;;;;10212353;28;20529;-61
2021/01/27 14:32:01;;;;;;;35.38;24.20;;;;;;;;;;10215579;28;20459;-61
2021/01/27 14:36:59;;;;;;;33.35;24.45;;;;;;;;;;10213668;28;20104;-61
2021/01/27 14:41:56;;;;;;;46.20;31.17;;;;;;;;;;10215619;28;20066;-61
2021/01/27 14:46:54;;;;;;;46.13;31.15;;;;;;;;;;10214442;28;20137;-63
2021/01/27 14:51:52;;;;;;;49.40;32.30;;;;;;;;;;10214621;28;20076;-62
2021/01/27 14:56:51;;;;;;;52.10;33.08;;;;;;;;;;10214223;28;20081;-63
2021/01/27 15:01:48;;;;;;;58.42;36.45;;;;;;;;;;10213278;28;20521;-62
2021/01/27 15:06:46;;;;;;;40.83;26.38;;;;;;;;;;10210121;28;20068;-62
2021/01/27 15:11:44;;;;;;;49.40;28.25;;;;;;;;;;10214293;28;20072;-62
2021/01/27 15:16:41;;;;;;;55.78;29.70;;;;;;;;;;10213690;28;20084;-62
2021/01/27 15:21:39;;;;;;;102.65;53.17;;;;;;;;;;10213232;28;20500;-62
2021/01/27 15:26:36;;;;;;;84.95;54.00;;;;;;;;;;10212742;28;20077;-62
2021/01/27 15:31:34;;;;;;;79.85;51.15;;;;;;;;;;10212333;28;20105;-62
2021/01/27 15:36:32;;;;;;;70.32;48.67;;;;;;;;;;10209235;28;20064;-61
2021/01/27 15:41:29;;;;;;;48.05;35.80;;;;;;;;;;10194773;28;20074;-60
2021/01/27 15:46:27;;;;;;;81.28;46.78;;;;;;;;;;10200503;28;20069;-61
2021/01/27 15:51:26;;;;;;;40.65;27.85;;;;;;;;;;10205007;28;20482;-59
2021/01/27 15:56:25;;;;;;;80.00;49.35;;;;;;;;;;10209145;28;20085;-61
2021/01/27 16:01:22;;;;;;;49.65;31.48;;;;;;;;;;10211327;28;20648;-61
2021/01/27 16:06:20;;;;;;;44.00;28.70;;;;;;;;;;10210777;28;20521;-63
2021/01/27 16:11:19;;;;;;;51.42;33.00;;;;;;;;;;10211581;28;20499;-62
2021/01/27 16:16:16;;;;;;;59.33;40.03;;;;;;;;;;10210542;28;20424;-61
2021/01/27 16:21:14;;;;;;;53.95;36.83;;;;;;;;;;10207872;28;20085;-64
2021/01/27 16:26:11;;;;;;;76.10;51.33;;;;;;;;;;10205640;28;20069;-63
2021/01/27 16:31:10;;;;;;;138.10;85.18;;;;;;;;;;10205996;28;20076;-64
2021/01/27 16:36:09;;;;;;;80.22;53.08;;;;;;;;;;10210887;28;20572;-64
2021/01/27 16:41:06;;;;;;;74.25;50.13;;;;;;;;;;10218385;28;20069;-64
2021/01/27 16:46:03;;;;;;;55.80;38.92;;;;;;;;;;10219264;28;20061;-64
2021/01/27 16:51:02;;;;;;;61.05;43.03;;;;;;;;;;10212388;28;20705;-64
2021/01/27 16:55:59;;;;;;;84.82;58.47;;;;;;;;;;10215164;28;20083;-65
2021/01/27 17:00:56;;;;;;;62.78;41.50;;;;;;;;;;10218383;28;20126;-64
2021/01/27 17:05:54;;;;;;;78.57;50.47;;;;;;;;;;10217532;28;20061;-64
2021/01/27 17:10:52;;;;;;;97.13;58.97;;;;;;;;;;10217387;28;20062;-65
2021/01/27 17:15:49;;;;;;;66.97;45.22;;;;;;;;;;10215748;28;20127;-64
2021/01/27 17:20:50;;;;;;;57.15;39.95;;;;;;;;;;10217446;28;20531;-65
2021/01/27 17:25:48;;;;;;;131.52;80.88;;;;;;;;;;10216547;28;20101;-64
2021/01/27 17:30:46;;;;;;;49.63;32.45;;;;;;;;;;10209870;28;20069;-65
2021/01/27 17:35:44;;;;;;;44.95;30.13;;;;;;;;;;10212614;28;20506;-65
2021/01/27 17:40:41;;;;;;;34.60;27.33;;;;;;;;;;10226832;28;20072;-64
2021/01/27 17:45:39;;;;;;;57.00;39.42;;;;;;;;;;10210139;28;20061;-64
2021/01/27 17:50:37;;;;;;;46.25;31.02;;;;;;;;;;10187772;28;20072;-63
2021/01/27 17:55:35;;;;;;;59.13;37.88;;;;;;;;;;10207316;28;20491;-64
2021/01/27 18:00:33;;;;;;;76.45;48.85;;;;;;;;;;10213609;28;20080;-64
2021/01/27 18:05:32;;;;;;;65.30;41.60;;;;;;;;;;10211340;28;20096;-64
2021/01/27 18:10:30;;;;;;;55.40;37.17;;;;;;;;;;10213165;28;20458;-64
2021/01/27 18:15:29;;;;;;;51.58;32.25;;;;;;;;;;10216177;28;20452;-64
2021/01/27 18:20:27;;;;;;;93.07;51.05;;;;;;;;;;10214807;28;20073;-63
2021/01/27 18:25:27;;;;;;;74.88;46.28;;;;;;;;;;10216424;28;20534;-64
2021/01/27 18:30:27;;;;;;;41.20;27.60;;;;;;;;;;10214095;28;20096;-64
2021/01/27 18:35:27;;;;;;;45.60;28.13;;;;;;;;;;10216084;28;20088;-64
2021/01/27 18:40:25;;;;;;;34.92;21.27;;;;;;;;;;10214940;28;20096;-64
2021/01/27 18:45:25;;;;;;;48.80;28.70;;;;;;;;;;10213941;28;20094;-65
2021/01/27 18:50:24;;;;;;;49.15;33.90;;;;;;;;;;10215198;28;20068;-65
2021/01/27 18:55:22;;;;;;;36.33;24.63;;;;;;;;;;10212594;28;20160;-64
2021/01/27 19:00:21;;;;;;;67.45;37.85;;;;;;;;;;10216895;28;20072;-64
2021/01/27 19:05:19;;;;;;;98.72;47.08;;;;;;;;;;10211784;28;20085;-64
2021/01/27 19:10:18;;;;;;;107.13;47.83;;;;;;;;;;10207988;28;20092;-64
2021/01/27 19:15:17;;;;;;;141.48;62.45;;;;;;;;;;10210804;28;20075;-65
2021/01/27 19:20:15;;;;;;;100.22;49.33;;;;;;;;;;10208393;28;20085;-65
2021/01/27 19:25:14;;;;;;;108.60;53.95;;;;;;;;;;10211219;28;20539;-64
2021/01/27 19:30:13;;;;;;;99.20;46.92;;;;;;;;;;10206475;28;20084;-64
2021/01/27 19:35:12;;;;;;;71.88;37.13;;;;;;;;;;10206822;28;20077;-64
2021/01/27 19:40:11;;;;;;;59.75;32.53;;;;;;;;;;10213345;28;20081;-64
2021/01/27 19:45:09;;;;;;;76.20;40.00;;;;;;;;;;10209262;28;20065;-64
2021/01/27 19:50:08;;;;;;;49.40;31.92;;;;;;;;;;10212444;28;20131;-65
2021/01/27 19:55:07;;;;;;;45.88;28.73;;;;;;;;;;10209016;28;20073;-64
2021/01/27 20:00:05;;;;;;;53.58;31.05;;;;;;;;;;10207678;28;20081;-64
2021/01/27 20:05:05;;;;;;;46.75;26.67;;;;;;;;;;10207166;28;20080;-64
2021/01/27 20:10:05;;;;;;;54.30;31.45;;;;;;;;;;10206679;28;20076;-64
2021/01/27 20:15:04;;;;;;;42.58;25.67;;;;;;;;;;10214566;28;20509;-64
2021/01/27 20:20:01;;;;;;;52.05;33.00;;;;;;;;;;10220834;28;20088;-64
2021/01/27 20:24:58;;;;;;;60.00;35.42;;;;;;;;;;10218746;28;20092;-64
2021/01/27 20:29:57;;;;;;;46.35;29.88;;;;;;;;;;10220293;28;20061;-64
2021/01/27 20:34:54;;;;;;;37.53;25.23;;;;;;;;;;10220344;28;20072;-64
2021/01/27 20:39:51;;;;;;;40.08;27.20;;;;;;;;;;10214622;28;20077;-64
2021/01/27 20:44:49;;;;;;;45.90;30.33;;;;;;;;;;10216784;28;20061;-64
2021/01/27 20:49:47;;;;;;;36.17;23.02;;;;;;;;;;10213347;28;20070;-64
2021/01/27 20:54:44;;;;;;;54.35;33.05;;;;;;;;;;10217309;28;20080;-64
2021/01/27 20:59:42;;;;;;;36.33;22.23;;;;;;;;;;10219453;28;20064;-65
2021/01/27 21:04:39;;;;;;;57.88;32.50;;;;;;;;;;10218108;28;20081;-64
2021/01/27 21:09:37;;;;;;;69.00;36.88;;;;;;;;;;10218192;28;20450;-64
2021/01/27 21:14:34;;;;;;;36.80;23.80;;;;;;;;;;10219538;28;20069;-66
2021/01/27 21:19:33;;;;;;;39.65;24.38;;;;;;;;;;10217578;28;20788;-64
2021/01/27 21:24:30;;;;;;;38.95;21.75;;;;;;;;;;10217379;28;20061;-64
2021/01/27 21:29:28;;;;;;;63.30;31.73;;;;;;;;;;10213914;28;20065;-64
2021/01/27 21:34:25;;;;;;;46.25;25.27;;;;;;;;;;10216421;28;20511;-64
2021/01/27 21:39:23;;;;;;;85.50;39.15;;;;;;;;;;10214060;28;20072;-64
2021/01/27 21:44:20;;;;;;;81.15;38.25;;;;;;;;;;10215286;28;20072;-65
2021/01/27 21:49:18;;;;;;;76.85;37.40;;;;;;;;;;10212169;28;20074;-64
2021/01/27 21:54:17;;;;;;;88.82;42.38;;;;;;;;;;10215407;28;20065;-64
2021/01/27 21:59:14;;;;;;;69.45;35.22;;;;;;;;;;10213092;28;20152;-64
2021/01/27 22:04:12;;;;;;;102.90;55.95;;;;;;;;;;10214818;28;20606;-64
2021/01/27 22:09:10;;;;;;;121.35;59.70;;;;;;;;;;10213208;28;20077;-63
2021/01/27 22:14:07;;;;;;;66.75;37.20;;;;;;;;;;10217775;28;20068;-63
2021/01/27 22:19:05;;;;;;;61.13;35.40;;;;;;;;;;10212958;28;20092;-64
2021/01/27 22:24:04;;;;;;;103.50;52.95;;;;;;;;;;10209274;28;20069;-63
2021/01/27 22:29:03;;;;;;;67.75;38.78;;;;;;;;;;10215973;28;20061;-64
2021/01/27 22:34:02;;;;;;;44.17;26.40;;;;;;;;;;10213117;28;20065;-64
2021/01/27 22:38:59;;;;;;;53.78;32.72;;;;;;;;;;10213558;28;20073;-64
2021/01/27 22:43:57;;;;;;;49.35;32.08;;;;;;;;;;10215512;28;20076;-63
2021/01/27 22:48:55;;;;;;;29.42;19.95;;;;;;;;;;10213732;28;20076;-64
2021/01/27 22:53:53;;;;;;;24.40;16.60;;;;;;;;;;10214605;28;20073;-63
2021/01/27 22:58:50;;;;;;;22.48;18.27;;;;;;;;;;10214932;28;20084;-64
2021/01/27 23:03:48;;;;;;;30.02;18.75;;;;;;;;;;10212920;28;20089;-64
2021/01/27 23:08:46;;;;;;;22.52;16.23;;;;;;;;;;10215043;28;20073;-63
2021/01/27 23:13:44;;;;;;;29.60;18.98;;;;;;;;;;10209816;28;20557;-64
2021/01/27 23:18:42;;;;;;;31.17;20.00;;;;;;;;;;10214223;28;20080;-64
2021/01/27 23:23:40;;;;;;;27.75;17.33;;;;;;;;;;10212953;28;20083;-64
2021/01/27 23:28:40;;;;;;;23.15;16.13;;;;;;;;;;10213251;28;20077;-64
2021/01/27 23:33:38;;;;;;;28.73;17.38;;;;;;;;;;10213290;28;20454;-65
2021/01/27 23:38:35;;;;;;;22.27;15.20;;;;;;;;;;10211000;28;20471;-64
2021/01/27 23:43:33;;;;;;;24.23;15.93;;;;;;;;;;10213831;28;20084;-65
2021/01/27 23:48:31;;;;;;;25.02;16.42;;;;;;;;;;10207410;28;20454;-65
2021/01/27 23:53:28;;;;;;;23.67;15.88;;;;;;;;;;10208518;28;20072;-64
2021/01/27 23:58:25;;;;;;;29.08;16.08;;;;;;;;;;10211900;28;20088;-65
